createdAt,value
2023-05-18T00:00:15.488Z,12.20
2023-05-18T00:01:15.549Z,12.02
2023-05-18T00:02:15.518Z,11.94
2023-05-18T00:03:15.642Z,11.83
2023-05-18T00:04:15.655Z,11.80
2023-05-18T00:05:15.576Z,11.79
2023-05-18T00:06:15.591Z,11.80
2023-05-18T00:07:15.591Z,11.84
2023-05-18T00:08:15.599Z,11.91
2023-05-18T00:09:15.644Z,12.00
2023-05-18T00:10:15.715Z,12.08
2023-05-18T00:11:15.684Z,12.23
2023-05-18T00:12:15.745Z,12.35
2023-05-18T00:13:15.792Z,12.50
2023-05-18T00:14:15.785Z,12.61
2023-05-18T00:15:15.778Z,12.45
2023-05-18T00:16:15.904Z,12.19
2023-05-18T00:17:15.840Z,12.06
2023-05-18T00:18:15.843Z,11.94
2023-05-18T00:19:15.886Z,11.82
2023-05-18T00:20:15.813Z,11.81
2023-05-18T00:21:15.830Z,11.83
2023-05-18T00:22:15.830Z,11.95
2023-05-18T00:23:15.895Z,12.17
2023-05-18T00:24:15.963Z,12.35
2023-05-18T00:25:15.963Z,12.47
2023-05-18T00:26:15.966Z,12.52
2023-05-18T00:27:15.994Z,12.57
2023-05-18T00:28:16.006Z,12.65
2023-05-18T00:29:16.009Z,12.70
2023-05-18T00:30:16.063Z,12.54
2023-05-18T00:31:16.057Z,12.49
2023-05-18T00:32:16.068Z,12.51
2023-05-18T00:33:16.098Z,12.53
2023-05-18T00:34:16.194Z,12.60
2023-05-18T00:35:16.207Z,12.71
2023-05-18T00:36:16.239Z,12.73
2023-05-18T00:37:16.280Z,12.61
2023-05-18T00:38:16.353Z,12.63
2023-05-18T00:39:16.345Z,12.65
2023-05-18T00:40:16.378Z,12.75
2023-05-18T00:41:16.408Z,12.73
2023-05-18T00:42:16.429Z,12.53
2023-05-18T00:43:16.437Z,12.21
2023-05-18T00:44:16.417Z,11.93
2023-05-18T00:45:16.480Z,11.79
2023-05-18T00:46:16.527Z,11.75
2023-05-18T00:47:16.506Z,11.82
2023-05-18T00:48:16.621Z,11.88
2023-05-18T00:49:16.556Z,11.94
2023-05-18T00:50:16.593Z,11.95
2023-05-18T00:51:16.602Z,12.11
2023-05-18T00:52:16.688Z,12.21
2023-05-18T00:53:16.741Z,12.29
2023-05-18T00:54:16.770Z,12.34
2023-05-18T00:55:16.828Z,12.37
2023-05-18T00:56:16.882Z,12.47
2023-05-18T00:57:16.945Z,12.58
2023-05-18T00:58:17.015Z,12.60
2023-05-18T00:59:17.017Z,12.44
2023-05-18T01:00:17.125Z,12.45
2023-05-18T01:01:17.204Z,12.33
2023-05-18T01:02:17.259Z,12.38
2023-05-18T01:03:17.295Z,12.52
2023-05-18T01:04:17.320Z,12.58
2023-05-18T01:05:17.390Z,12.57
2023-05-18T01:06:17.424Z,12.68
2023-05-18T01:07:17.475Z,12.78
2023-05-18T01:08:17.488Z,12.82
2023-05-18T01:09:17.519Z,12.87
2023-05-18T01:10:17.591Z,12.77
2023-05-18T01:11:17.665Z,12.67
2023-05-18T01:12:17.666Z,12.70
2023-05-18T01:13:17.698Z,12.71
2023-05-18T01:14:17.720Z,12.75
2023-05-18T01:15:17.756Z,12.78
2023-05-18T01:16:17.763Z,12.52
2023-05-18T01:17:17.839Z,12.27
2023-05-18T01:18:17.879Z,11.92
2023-05-18T01:19:17.904Z,11.94
2023-05-18T01:20:17.844Z,12.04
2023-05-18T01:21:17.809Z,12.12
2023-05-18T01:22:17.821Z,12.21
2023-05-18T01:23:17.876Z,12.36
2023-05-18T01:24:17.900Z,12.47
2023-05-18T01:25:17.949Z,12.40
2023-05-18T01:26:17.980Z,12.25
2023-05-18T01:27:17.958Z,12.11
2023-05-18T01:28:17.962Z,12.15
2023-05-18T01:29:17.973Z,11.93
2023-05-18T01:30:17.969Z,11.80
2023-05-18T01:31:18.088Z,11.75
2023-05-18T01:32:17.999Z,11.64
2023-05-18T01:33:18.027Z,11.61
2023-05-18T01:34:17.987Z,11.58
2023-05-18T01:35:18.021Z,11.45
2023-05-18T01:36:18.031Z,11.45
2023-05-18T01:37:18.001Z,11.42
2023-05-18T01:38:17.997Z,11.56
2023-05-18T01:39:17.991Z,11.65
2023-05-18T01:40:18.000Z,11.84
2023-05-18T01:41:18.036Z,11.91
2023-05-18T01:42:18.106Z,12.00
2023-05-18T01:43:18.206Z,12.12
2023-05-18T01:44:18.222Z,12.24
2023-05-18T01:45:18.290Z,12.40
2023-05-18T01:46:18.421Z,12.46
2023-05-18T01:47:18.344Z,12.49
2023-05-18T01:48:18.403Z,12.53
2023-05-18T01:49:18.431Z,12.56
2023-05-18T01:50:18.422Z,12.63
2023-05-18T01:51:18.413Z,12.48
2023-05-18T01:52:18.392Z,12.53
2023-05-18T01:53:18.418Z,12.60
2023-05-18T01:54:18.412Z,12.48
2023-05-18T01:55:18.394Z,12.33
2023-05-18T01:56:18.379Z,12.20
2023-05-18T01:57:18.399Z,12.22
2023-05-18T01:58:18.392Z,12.27
2023-05-18T01:59:18.387Z,12.22
2023-05-18T02:00:18.432Z,12.33
2023-05-18T02:01:18.530Z,12.34
2023-05-18T02:02:18.609Z,12.18
2023-05-18T02:03:18.669Z,12.25
2023-05-18T02:04:18.673Z,12.32
2023-05-18T02:05:18.653Z,12.38
2023-05-18T02:06:18.624Z,12.45
2023-05-18T02:07:18.636Z,12.54
2023-05-18T02:08:18.700Z,12.57
2023-05-18T02:09:18.722Z,12.50
2023-05-18T02:10:18.712Z,12.48
2023-05-18T02:11:18.754Z,12.49
2023-05-18T02:12:18.828Z,12.50
2023-05-18T02:13:18.783Z,12.48
2023-05-18T02:14:18.770Z,12.49
2023-05-18T02:15:18.771Z,12.46
2023-05-18T02:16:18.854Z,12.21
2023-05-18T02:17:18.804Z,12.15
2023-05-18T02:18:18.750Z,12.03
2023-05-18T02:19:18.886Z,11.94
2023-05-18T02:20:18.806Z,11.89
2023-05-18T02:21:18.805Z,11.92
2023-05-18T02:22:18.847Z,12.02
2023-05-18T02:23:18.835Z,12.11
2023-05-18T02:24:18.889Z,12.20
2023-05-18T02:25:18.909Z,12.23
2023-05-18T02:26:18.895Z,12.22
2023-05-18T02:27:18.910Z,12.36
2023-05-18T02:28:18.917Z,12.49
2023-05-18T02:29:18.962Z,12.48
2023-05-18T02:30:18.994Z,12.53
2023-05-18T02:31:18.971Z,12.54
2023-05-18T02:32:18.959Z,12.62
2023-05-18T02:33:18.997Z,12.46
2023-05-18T02:34:19.031Z,12.49
2023-05-18T02:35:19.004Z,12.53
2023-05-18T02:36:19.042Z,12.60
2023-05-18T02:37:19.065Z,12.65
2023-05-18T02:38:19.064Z,12.69
2023-05-18T02:39:19.047Z,12.62
2023-05-18T02:40:19.101Z,12.66
2023-05-18T02:41:19.151Z,12.65
2023-05-18T02:42:19.156Z,12.65
2023-05-18T02:43:19.178Z,12.68
2023-05-18T02:44:19.250Z,12.60
2023-05-18T02:45:19.278Z,12.45
2023-05-18T02:46:19.395Z,12.48
2023-05-18T02:47:19.402Z,12.57
2023-05-18T02:48:19.499Z,12.46
2023-05-18T02:49:19.512Z,12.26
2023-05-18T02:50:19.559Z,12.27
2023-05-18T02:51:19.601Z,12.40
2023-05-18T02:52:19.683Z,12.52
2023-05-18T02:53:19.753Z,12.62
2023-05-18T02:54:19.882Z,12.65
2023-05-18T02:55:19.874Z,12.65
2023-05-18T02:56:19.918Z,12.47
2023-05-18T02:57:19.938Z,12.48
2023-05-18T02:58:20.049Z,12.43
2023-05-18T02:59:20.146Z,12.40
2023-05-18T03:00:20.149Z,12.41
2023-05-18T03:01:20.321Z,12.38
2023-05-18T03:02:20.279Z,12.43
2023-05-18T03:03:20.416Z,12.57
2023-05-18T03:04:20.368Z,12.70
2023-05-18T03:05:20.401Z,12.77
2023-05-18T03:06:20.442Z,12.78
2023-05-18T03:07:20.458Z,12.83
2023-05-18T03:08:20.465Z,12.90
2023-05-18T03:09:20.502Z,12.77
2023-05-18T03:10:20.496Z,12.63
2023-05-18T03:11:20.558Z,12.47
2023-05-18T03:12:20.497Z,12.40
2023-05-18T03:13:20.498Z,12.32
2023-05-18T03:14:20.588Z,12.24
2023-05-18T03:15:20.637Z,12.06
2023-05-18T03:16:20.628Z,11.91
2023-05-18T03:17:20.642Z,11.88
2023-05-18T03:18:20.713Z,12.13
2023-05-18T03:19:20.738Z,12.20
2023-05-18T03:20:20.725Z,12.18
2023-05-18T03:21:20.712Z,12.25
2023-05-18T03:22:20.722Z,12.35
2023-05-18T03:23:20.668Z,12.51
2023-05-18T03:24:20.693Z,12.69
2023-05-18T03:25:20.637Z,12.67
2023-05-18T03:26:20.964Z,12.70
2023-05-18T03:27:20.663Z,12.78
2023-05-18T03:28:20.666Z,12.66
2023-05-18T03:29:20.646Z,12.48
2023-05-18T03:30:20.623Z,12.58
2023-05-18T03:31:20.723Z,12.68
2023-05-18T03:32:20.697Z,12.49
2023-05-18T03:33:20.760Z,12.42
2023-05-18T03:34:20.832Z,12.51
2023-05-18T03:35:20.862Z,12.36
2023-05-18T03:36:20.922Z,12.28
2023-05-18T03:37:21.000Z,12.28
2023-05-18T03:38:21.066Z,12.34
2023-05-18T03:39:21.069Z,12.46
2023-05-18T03:40:21.113Z,12.63
2023-05-18T03:41:21.113Z,12.79
2023-05-18T03:42:21.164Z,12.85
2023-05-18T03:43:21.193Z,12.87
2023-05-18T03:44:21.215Z,12.73
2023-05-18T03:45:21.245Z,12.69
2023-05-18T03:46:21.305Z,12.57
2023-05-18T03:47:21.301Z,12.50
2023-05-18T03:48:21.320Z,12.59
2023-05-18T03:49:21.331Z,12.61
2023-05-18T03:50:21.381Z,12.66
2023-05-18T03:51:21.342Z,12.67
2023-05-18T03:52:21.414Z,12.64
2023-05-18T03:53:21.461Z,12.73
2023-05-18T03:54:21.416Z,12.85
2023-05-18T03:55:21.476Z,12.93
2023-05-18T03:56:21.460Z,12.94
2023-05-18T03:57:21.500Z,12.82
2023-05-18T03:58:21.538Z,12.83
2023-05-18T03:59:21.557Z,12.52
2023-05-18T04:00:21.625Z,12.42
2023-05-18T04:01:21.643Z,12.27
2023-05-18T04:02:21.724Z,12.41
2023-05-18T04:03:21.804Z,12.39
2023-05-18T04:04:21.837Z,12.48
2023-05-18T04:05:21.756Z,12.63
2023-05-18T04:06:21.821Z,12.74
2023-05-18T04:07:21.820Z,12.81
2023-05-18T04:08:21.870Z,12.91
2023-05-18T04:09:21.835Z,13.03
2023-05-18T04:10:21.878Z,12.97
2023-05-18T04:11:21.906Z,13.02
2023-05-18T04:12:21.947Z,13.09
2023-05-18T04:13:22.053Z,13.15
2023-05-18T04:14:22.083Z,13.17
2023-05-18T04:15:22.216Z,13.24
2023-05-18T04:16:22.209Z,13.22
2023-05-18T04:17:22.203Z,13.20
2023-05-18T04:18:22.146Z,13.27
2023-05-18T04:19:22.174Z,13.30
2023-05-18T04:20:22.188Z,13.09
2023-05-18T04:21:22.177Z,13.15
2023-05-18T04:22:22.231Z,13.13
2023-05-18T04:23:22.288Z,12.91
2023-05-18T04:24:22.409Z,12.85
2023-05-18T04:25:22.412Z,12.88
2023-05-18T04:26:22.418Z,12.78
2023-05-18T04:27:22.497Z,12.91
2023-05-18T04:28:22.499Z,12.97
2023-05-18T04:29:22.566Z,12.91
2023-05-18T04:30:22.640Z,12.97
2023-05-18T04:31:22.596Z,13.01
2023-05-18T04:32:22.584Z,13.01
2023-05-18T04:33:22.647Z,12.89
2023-05-18T04:34:22.623Z,12.81
2023-05-18T04:35:22.690Z,12.75
2023-05-18T04:36:22.650Z,12.82
2023-05-18T04:37:22.690Z,12.91
2023-05-18T04:38:22.698Z,12.98
2023-05-18T04:39:22.771Z,12.98
2023-05-18T04:40:22.858Z,13.03
2023-05-18T04:41:22.952Z,13.11
2023-05-18T04:42:22.927Z,13.18
2023-05-18T04:43:22.951Z,13.22
2023-05-18T04:44:22.954Z,13.17
2023-05-18T04:45:23.031Z,13.22
2023-05-18T04:46:23.052Z,13.30
2023-05-18T04:47:23.072Z,13.11
2023-05-18T04:48:23.104Z,12.78
2023-05-18T04:49:23.189Z,12.54
2023-05-18T04:50:23.233Z,12.25
2023-05-18T04:51:23.294Z,12.05
2023-05-18T04:52:23.341Z,11.93
2023-05-18T04:53:23.412Z,11.92
2023-05-18T04:54:23.521Z,11.83
2023-05-18T04:55:23.523Z,11.85
2023-05-18T04:56:23.631Z,11.91
2023-05-18T04:57:23.693Z,12.02
2023-05-18T04:58:23.696Z,12.02
2023-05-18T04:59:23.764Z,12.12
2023-05-18T05:00:23.775Z,12.20
2023-05-18T05:02:51.732Z,11.93
2023-05-18T05:03:44.115Z,12.10
2023-05-18T05:04:43.811Z,12.09
2023-05-18T05:05:43.785Z,11.94
2023-05-18T05:06:43.829Z,11.87
2023-05-18T05:07:43.722Z,12.14
2023-05-18T05:08:44.420Z,12.25
2023-05-18T05:09:43.771Z,12.29
2023-05-18T05:10:43.745Z,12.48
2023-05-18T05:11:43.699Z,12.60
2023-05-18T05:12:45.704Z,12.78
2023-05-18T05:13:43.836Z,12.90
2023-05-18T05:14:43.873Z,13.04
2023-05-18T05:15:43.895Z,13.11
2023-05-18T05:16:43.852Z,13.24
2023-05-18T05:17:43.929Z,13.35
2023-05-18T05:18:44.700Z,13.37
2023-05-18T05:19:44.494Z,13.15
2023-05-18T05:20:43.900Z,12.95
2023-05-18T05:21:43.756Z,12.94
2023-05-18T05:22:43.761Z,12.96
2023-05-18T05:23:43.775Z,12.99
2023-05-18T05:24:44.442Z,13.04
2023-05-18T05:25:43.780Z,12.87
2023-05-18T05:26:43.712Z,12.77
2023-05-18T05:27:43.734Z,12.96
2023-05-18T05:28:43.772Z,13.05
2023-05-18T05:29:43.725Z,13.13
2023-05-18T05:30:43.738Z,13.23
2023-05-18T05:31:43.789Z,13.13
2023-05-18T05:32:43.826Z,12.84
2023-05-18T05:33:43.680Z,12.79
2023-05-18T05:34:43.728Z,12.87
2023-05-18T05:35:43.657Z,12.77
2023-05-18T05:36:44.478Z,12.88
2023-05-18T05:37:43.616Z,13.04
2023-05-18T05:38:43.631Z,13.16
2023-05-18T05:39:43.645Z,13.36
2023-05-18T05:40:43.624Z,13.53
2023-05-18T05:41:43.624Z,13.69
2023-05-18T05:42:43.626Z,13.66
2023-05-18T05:43:43.637Z,13.69
2023-05-18T05:44:44.464Z,13.69
2023-05-18T05:45:51.502Z,13.74
2023-05-18T05:46:43.571Z,13.79
2023-05-18T05:47:43.599Z,13.91
2023-05-18T05:48:43.522Z,13.99
2023-05-18T05:49:43.503Z,14.01
2023-05-18T05:50:43.540Z,14.14
2023-05-18T05:51:43.492Z,13.95
2023-05-18T05:52:43.546Z,13.56
2023-05-18T05:53:43.466Z,13.39
2023-05-18T05:54:43.480Z,13.26
2023-05-18T05:55:43.461Z,13.32
2023-05-18T05:56:43.486Z,13.54
2023-05-18T05:57:43.477Z,13.67
2023-05-18T05:58:43.458Z,13.78
2023-05-18T05:59:43.444Z,13.92
2023-05-18T06:00:43.474Z,14.04
2023-05-18T06:01:43.525Z,14.21
2023-05-18T06:02:43.530Z,14.14
2023-05-18T06:03:43.500Z,14.26
2023-05-18T06:04:43.470Z,14.16
2023-05-18T06:05:43.504Z,14.12
2023-05-18T06:06:43.531Z,14.25
2023-05-18T06:07:43.551Z,14.22
2023-05-18T06:08:43.577Z,14.32
2023-05-18T06:09:43.636Z,14.41
2023-05-18T06:10:43.651Z,14.44
2023-05-18T06:11:43.651Z,14.48
2023-05-18T06:12:43.602Z,14.47
2023-05-18T06:13:43.602Z,14.52
2023-05-18T06:14:43.621Z,14.51
2023-05-18T06:15:43.629Z,14.51
2023-05-18T06:16:43.656Z,14.33
2023-05-18T06:17:43.655Z,14.22
2023-05-18T06:18:43.640Z,14.24
2023-05-18T06:19:43.603Z,14.21
2023-05-18T06:20:43.563Z,14.05
2023-05-18T06:21:43.605Z,13.90
2023-05-18T06:22:43.652Z,13.56
2023-05-18T06:23:43.658Z,13.54
2023-05-18T06:24:43.644Z,13.80
2023-05-18T06:25:43.675Z,13.89
2023-05-18T06:26:43.786Z,13.99
2023-05-18T06:27:43.815Z,14.14
2023-05-18T06:28:43.778Z,14.29
2023-05-18T06:29:43.743Z,14.49
2023-05-18T06:30:43.794Z,14.64
2023-05-18T06:31:43.832Z,14.75
2023-05-18T06:32:43.911Z,14.79
2023-05-18T06:33:43.865Z,14.80
2023-05-18T06:34:43.922Z,14.86
2023-05-18T06:35:43.995Z,15.00
2023-05-18T06:36:44.044Z,14.88
2023-05-18T06:37:46.193Z,14.90
2023-05-18T06:38:44.049Z,14.83
2023-05-18T06:39:44.053Z,14.65
2023-05-18T06:40:44.004Z,14.60
2023-05-18T06:41:44.067Z,14.45
2023-05-18T06:42:43.974Z,14.48
2023-05-18T06:43:44.000Z,14.52
2023-05-18T06:44:43.980Z,14.59
2023-05-18T06:45:44.037Z,14.78
2023-05-18T06:46:44.110Z,14.65
2023-05-18T06:47:44.050Z,14.44
2023-05-18T06:48:43.965Z,14.66
2023-05-18T06:49:43.962Z,14.86
2023-05-18T06:50:43.963Z,15.05
2023-05-18T06:51:44.071Z,15.21
2023-05-18T06:52:43.913Z,15.26
2023-05-18T06:53:43.952Z,15.34
2023-05-18T06:54:44.010Z,15.26
2023-05-18T06:55:43.987Z,15.40
2023-05-18T06:56:43.997Z,15.54
2023-05-18T06:57:44.040Z,15.72
2023-05-18T06:58:44.080Z,15.49
2023-05-18T06:59:44.094Z,15.19
2023-05-18T07:00:44.072Z,15.15
2023-05-18T07:01:44.172Z,15.27
2023-05-18T07:02:44.183Z,15.28
2023-05-18T07:03:44.283Z,14.81
2023-05-18T07:04:44.235Z,14.84
2023-05-18T07:05:44.257Z,15.11
2023-05-18T07:06:44.280Z,15.37
2023-05-18T07:07:44.272Z,15.34
2023-05-18T07:08:44.249Z,15.35
2023-05-18T07:09:44.261Z,15.30
2023-05-18T07:10:44.270Z,15.01
2023-05-18T07:11:44.312Z,15.10
2023-05-18T07:12:44.269Z,15.28
2023-05-18T07:13:44.284Z,15.28
2023-05-18T07:14:44.312Z,15.36
2023-05-18T07:15:44.306Z,15.26
2023-05-18T07:16:44.302Z,15.40
2023-05-18T07:17:44.360Z,15.37
2023-05-18T07:18:44.354Z,14.98
2023-05-18T07:19:44.349Z,14.70
2023-05-18T07:20:44.370Z,14.85
2023-05-18T07:21:44.361Z,14.62
2023-05-18T07:22:44.380Z,14.72
2023-05-18T07:23:44.372Z,14.91
2023-05-18T07:24:44.363Z,15.09
2023-05-18T07:25:44.393Z,15.25
2023-05-18T07:26:44.410Z,15.27
2023-05-18T07:27:44.442Z,15.06
2023-05-18T07:28:44.422Z,15.03
2023-05-18T07:29:44.451Z,15.20
2023-05-18T07:30:44.533Z,15.27
2023-05-18T07:31:44.556Z,15.48
2023-05-18T07:32:44.567Z,15.68
2023-05-18T07:33:44.533Z,15.86
2023-05-18T07:34:44.506Z,15.98
2023-05-18T07:35:44.497Z,15.69
2023-05-18T07:36:45.411Z,15.67
2023-05-18T07:37:44.450Z,15.91
2023-05-18T07:38:44.488Z,16.08
2023-05-18T07:39:44.487Z,16.12
2023-05-18T07:40:44.441Z,16.14
2023-05-18T07:41:44.506Z,15.91
2023-05-18T07:42:44.442Z,15.88
2023-05-18T07:43:44.426Z,15.95
2023-05-18T07:44:44.444Z,16.16
2023-05-18T07:45:44.543Z,16.24
2023-05-18T07:46:44.680Z,16.33
2023-05-18T07:47:44.698Z,16.41
2023-05-18T07:48:44.653Z,16.44
2023-05-18T07:49:44.762Z,16.33
2023-05-18T07:50:44.814Z,16.29
2023-05-18T07:51:44.881Z,16.41
2023-05-18T07:52:44.875Z,16.62
2023-05-18T07:53:44.901Z,16.63
2023-05-18T07:54:44.973Z,16.49
2023-05-18T07:55:44.929Z,16.35
2023-05-18T07:56:45.049Z,16.48
2023-05-18T07:57:45.097Z,16.67
2023-05-18T07:58:45.192Z,16.57
2023-05-18T07:59:45.243Z,16.73
2023-05-18T08:00:45.265Z,16.77
2023-05-18T08:01:45.401Z,16.76
2023-05-18T08:02:45.460Z,16.83
2023-05-18T08:03:45.393Z,16.94
2023-05-18T08:04:45.312Z,17.04
2023-05-18T08:05:45.363Z,17.03
2023-05-18T08:06:45.430Z,16.86
2023-05-18T08:07:45.422Z,16.99
2023-05-18T08:08:53.082Z,17.11
2023-05-18T08:09:45.463Z,16.99
2023-05-18T08:10:45.461Z,16.92
2023-05-18T08:11:45.444Z,16.94
2023-05-18T08:12:45.434Z,16.95
2023-05-18T08:13:45.427Z,17.15
2023-05-18T08:14:45.394Z,17.28
2023-05-18T08:15:46.377Z,17.27
2023-05-18T08:16:45.460Z,17.43
2023-05-18T08:17:45.436Z,17.60
2023-05-18T08:18:45.461Z,17.64
2023-05-18T08:19:45.379Z,17.65
2023-05-18T08:20:45.403Z,17.67
2023-05-18T08:21:45.395Z,17.35
2023-05-18T08:22:45.392Z,17.36
2023-05-18T08:23:45.357Z,17.31
2023-05-18T08:24:45.366Z,17.47
2023-05-18T08:25:45.367Z,17.63
2023-05-18T08:26:45.994Z,17.77
2023-05-18T08:27:45.341Z,17.70
2023-05-18T08:28:45.363Z,17.81
2023-05-18T08:29:45.311Z,17.99
2023-05-18T08:30:45.297Z,17.88
2023-05-18T08:31:47.009Z,17.76
2023-05-18T08:32:45.350Z,17.88
2023-05-18T08:33:45.258Z,17.74
2023-05-18T08:34:45.270Z,17.68
2023-05-18T08:35:45.280Z,17.71
2023-05-18T08:36:45.274Z,17.51
2023-05-18T08:37:45.287Z,17.36
2023-05-18T08:38:45.230Z,17.21
2023-05-18T08:39:45.242Z,17.28
2023-05-18T08:40:45.252Z,17.47
2023-05-18T08:41:45.209Z,17.62
2023-05-18T08:42:49.911Z,17.77
2023-05-18T08:43:46.261Z,17.92
2023-05-18T08:44:45.225Z,17.94
2023-05-18T08:45:45.191Z,18.02
2023-05-18T08:46:45.190Z,18.05
2023-05-18T08:47:45.301Z,18.10
2023-05-18T08:48:45.185Z,18.17
2023-05-18T08:49:45.167Z,18.26
2023-05-18T08:50:45.216Z,18.13
2023-05-18T08:51:45.190Z,17.80
2023-05-18T08:52:45.126Z,17.84
2023-05-18T08:53:45.153Z,17.87
2023-05-18T08:54:45.154Z,17.83
2023-05-18T08:55:45.164Z,17.75
2023-05-18T08:56:45.223Z,18.13
2023-05-18T08:57:56.691Z,18.43
2023-05-18T08:58:45.350Z,18.62
2023-05-18T08:59:45.382Z,18.48
2023-05-18T09:00:45.375Z,18.52
2023-05-18T09:01:45.527Z,18.48
2023-05-18T09:02:45.530Z,18.12
2023-05-18T09:03:45.509Z,18.04
2023-05-18T09:04:45.489Z,18.22
2023-05-18T09:05:45.497Z,18.30
2023-05-18T09:06:45.503Z,18.22
2023-05-18T09:07:45.495Z,18.33
2023-05-18T09:08:45.456Z,18.39
2023-05-18T09:09:45.453Z,18.14
2023-05-18T09:10:45.407Z,18.07
2023-05-18T09:11:45.412Z,18.04
2023-05-18T09:12:45.448Z,18.24
2023-05-18T09:13:45.449Z,18.15
2023-05-18T09:14:45.384Z,17.81
2023-05-18T09:15:45.513Z,17.75
2023-05-18T09:16:45.528Z,17.92
2023-05-18T09:17:45.592Z,17.91
2023-05-18T09:18:45.692Z,18.04
2023-05-18T09:19:45.676Z,18.17
2023-05-18T09:20:45.652Z,18.22
2023-05-18T09:21:45.652Z,18.25
2023-05-18T09:22:45.682Z,18.45
2023-05-18T09:23:45.706Z,18.49
2023-05-18T09:24:45.737Z,18.41
2023-05-18T09:25:45.741Z,18.19
2023-05-18T09:26:45.769Z,18.17
2023-05-18T09:27:45.771Z,18.21
2023-05-18T09:28:45.809Z,18.00
2023-05-18T09:29:45.882Z,18.10
2023-05-18T09:30:45.942Z,18.28
2023-05-18T09:31:46.031Z,18.14
2023-05-18T09:32:46.123Z,18.28
2023-05-18T09:33:46.160Z,18.33
2023-05-18T09:34:46.163Z,18.39
2023-05-18T09:35:47.116Z,18.27
2023-05-18T09:36:46.125Z,18.16
2023-05-18T09:37:46.081Z,18.17
2023-05-18T09:38:46.277Z,18.02
2023-05-18T09:39:46.058Z,17.71
2023-05-18T09:40:46.070Z,17.73
2023-05-18T09:41:46.056Z,17.80
2023-05-18T09:42:46.080Z,17.91
2023-05-18T09:43:46.072Z,18.09
2023-05-18T09:44:46.056Z,18.29
2023-05-18T09:45:46.076Z,18.48
2023-05-18T09:46:46.131Z,18.38
2023-05-18T09:47:46.111Z,18.43
2023-05-18T09:48:46.077Z,18.35
2023-05-18T09:49:46.002Z,18.47
2023-05-18T09:50:45.963Z,18.58
2023-05-18T09:51:46.488Z,18.55
2023-05-18T09:52:46.010Z,18.50
2023-05-18T09:53:46.348Z,18.64
2023-05-18T09:54:46.017Z,18.64
2023-05-18T09:55:46.347Z,18.72
2023-05-18T09:56:52.284Z,18.66
2023-05-18T09:57:47.102Z,18.59
2023-05-18T09:58:46.124Z,18.73
2023-05-18T09:59:46.062Z,18.82
2023-05-18T10:00:46.131Z,18.98
2023-05-18T10:01:46.056Z,18.87
2023-05-18T10:02:46.070Z,18.74
2023-05-18T10:03:46.163Z,18.86
2023-05-18T10:04:46.104Z,18.99
2023-05-18T10:05:46.035Z,18.93
2023-05-18T10:06:46.098Z,18.80
2023-05-18T10:07:46.133Z,18.68
2023-05-18T10:08:46.000Z,18.73
2023-05-18T10:09:46.023Z,18.84
2023-05-18T10:10:46.010Z,18.69
2023-05-18T10:11:46.356Z,18.68
2023-05-18T10:12:46.044Z,18.67
2023-05-18T10:13:45.980Z,18.37
2023-05-18T10:14:45.964Z,18.33
2023-05-18T10:15:46.002Z,18.03
2023-05-18T10:16:46.106Z,18.12
2023-05-18T10:17:46.066Z,17.80
2023-05-18T10:18:46.045Z,17.90
2023-05-18T10:19:46.093Z,18.18
2023-05-18T10:20:46.148Z,18.12
2023-05-18T10:21:46.142Z,18.29
2023-05-18T10:22:46.270Z,18.37
2023-05-18T10:23:46.223Z,18.51
2023-05-18T10:24:46.225Z,18.61
2023-05-18T10:25:46.198Z,18.67
2023-05-18T10:26:46.240Z,18.61
2023-05-18T10:27:46.185Z,18.66
2023-05-18T10:28:46.193Z,18.82
2023-05-18T10:29:46.194Z,18.88
2023-05-18T10:30:46.189Z,18.72
2023-05-18T10:31:46.296Z,18.86
2023-05-18T10:32:46.200Z,18.88
2023-05-18T10:33:46.189Z,18.83
2023-05-18T10:34:46.187Z,19.02
2023-05-18T10:35:46.241Z,19.18
2023-05-18T10:36:46.210Z,19.13
2023-05-18T10:37:46.215Z,19.29
2023-05-18T10:38:46.176Z,19.38
2023-05-18T10:39:46.210Z,19.37
2023-05-18T10:40:46.177Z,19.24
2023-05-18T10:41:46.130Z,19.31
2023-05-18T10:42:46.165Z,19.22
2023-05-18T10:43:46.136Z,19.15
2023-05-18T10:44:46.164Z,19.06
2023-05-18T10:45:46.105Z,19.05
2023-05-18T10:46:46.186Z,19.29
2023-05-18T10:47:46.255Z,19.39
2023-05-18T10:48:47.940Z,19.46
2023-05-18T10:49:46.116Z,19.48
2023-05-18T10:50:46.112Z,19.40
2023-05-18T10:51:46.117Z,19.25
2023-05-18T10:52:46.083Z,19.20
2023-05-18T10:53:46.072Z,18.99
2023-05-18T10:54:46.067Z,19.12
2023-05-18T10:55:46.031Z,19.18
2023-05-18T10:56:46.036Z,19.32
2023-05-18T10:57:46.050Z,19.44
2023-05-18T10:58:46.062Z,19.61
2023-05-18T10:59:48.077Z,19.77
2023-05-18T11:00:46.226Z,19.66
2023-05-18T11:01:46.334Z,19.66
2023-05-18T11:02:46.696Z,19.32
2023-05-18T11:03:46.300Z,18.95
2023-05-18T11:04:46.373Z,19.10
2023-05-18T11:05:46.377Z,19.27
2023-05-18T11:06:46.411Z,18.98
2023-05-18T11:07:46.425Z,19.11
2023-05-18T11:08:46.503Z,19.04
2023-05-18T11:09:46.501Z,18.82
2023-05-18T11:10:46.540Z,19.00
2023-05-18T11:11:46.636Z,19.29
2023-05-18T11:12:46.621Z,19.47
2023-05-18T11:13:46.659Z,19.49
2023-05-18T11:14:46.637Z,19.30
2023-05-18T11:15:46.661Z,19.44
2023-05-18T11:16:46.712Z,19.46
2023-05-18T11:17:46.667Z,19.71
2023-05-18T11:18:46.758Z,19.88
2023-05-18T11:19:46.662Z,19.85
2023-05-18T11:20:46.619Z,19.88
2023-05-18T11:21:46.634Z,19.81
2023-05-18T11:22:46.763Z,19.81
2023-05-18T11:23:46.621Z,19.68
2023-05-18T11:24:46.626Z,19.50
2023-05-18T11:25:46.629Z,19.51
2023-05-18T11:26:46.659Z,19.48
2023-05-18T11:27:46.660Z,19.44
2023-05-18T11:28:47.854Z,19.44
2023-05-18T11:29:46.793Z,19.44
2023-05-18T11:30:46.684Z,19.30
2023-05-18T11:31:46.730Z,19.16
2023-05-18T11:32:46.757Z,19.16
2023-05-18T11:33:46.726Z,19.16
2023-05-18T11:34:46.673Z,19.05
2023-05-18T11:35:46.664Z,19.19
2023-05-18T11:36:46.627Z,19.15
2023-05-18T11:37:46.629Z,19.28
2023-05-18T11:38:46.797Z,19.53
2023-05-18T11:39:58.159Z,19.60
2023-05-18T11:40:46.625Z,19.62
2023-05-18T11:41:46.660Z,19.75
2023-05-18T11:42:46.645Z,20.00
2023-05-18T11:43:46.565Z,20.03
2023-05-18T11:44:46.622Z,19.71
2023-05-18T11:45:46.613Z,19.69
2023-05-18T11:46:46.658Z,19.86
2023-05-18T11:47:46.607Z,19.85
2023-05-18T11:48:46.676Z,19.70
2023-05-18T11:49:46.547Z,19.66
2023-05-18T11:50:46.509Z,19.75
2023-05-18T11:51:46.520Z,19.81
2023-05-18T11:52:46.519Z,19.65
2023-05-18T11:53:46.529Z,19.74
2023-05-18T11:54:46.487Z,19.68
2023-05-18T11:55:46.512Z,19.89
2023-05-18T11:56:46.566Z,19.82
2023-05-18T11:57:46.633Z,19.81
2023-05-18T11:58:46.634Z,19.57
2023-05-18T11:59:46.689Z,19.62
2023-05-18T12:00:46.673Z,19.53
2023-05-18T12:01:46.784Z,19.54
2023-05-18T12:02:46.862Z,19.64
2023-05-18T12:03:48.623Z,19.60
2023-05-18T12:04:46.788Z,19.44
2023-05-18T12:05:46.728Z,19.46
2023-05-18T12:06:46.730Z,19.56
2023-05-18T12:07:46.707Z,19.56
2023-05-18T12:08:46.734Z,19.54
2023-05-18T12:09:46.740Z,19.73
2023-05-18T12:10:46.814Z,19.91
2023-05-18T12:11:46.821Z,19.87
2023-05-18T12:12:46.797Z,19.85
2023-05-18T12:13:46.867Z,19.99
2023-05-18T12:14:46.878Z,20.11
2023-05-18T12:15:46.871Z,20.31
2023-05-18T12:16:46.972Z,20.20
2023-05-18T12:17:46.995Z,20.26
2023-05-18T12:18:46.960Z,20.45
2023-05-18T12:19:46.929Z,20.66
2023-05-18T12:20:46.972Z,20.78
2023-05-18T12:21:46.932Z,20.46
2023-05-18T12:22:46.947Z,20.28
2023-05-18T12:23:46.932Z,20.20
2023-05-18T12:24:46.918Z,20.12
2023-05-18T12:25:46.952Z,20.19
2023-05-18T12:26:46.923Z,20.07
2023-05-18T12:27:46.906Z,20.19
2023-05-18T12:28:46.928Z,20.45
2023-05-18T12:29:46.920Z,20.49
2023-05-18T12:30:46.933Z,20.67
2023-05-18T12:31:46.885Z,20.89
2023-05-18T12:32:46.938Z,21.00
2023-05-18T12:33:46.896Z,21.00
2023-05-18T12:34:46.902Z,21.01
2023-05-18T12:35:46.921Z,21.03
2023-05-18T12:36:47.004Z,20.98
2023-05-18T12:37:47.563Z,20.97
2023-05-18T12:38:47.022Z,21.02
2023-05-18T12:39:47.097Z,21.15
2023-05-18T12:40:47.158Z,21.07
2023-05-18T12:41:47.163Z,20.75
2023-05-18T12:42:47.254Z,20.07
2023-05-18T12:43:47.263Z,20.06
2023-05-18T12:44:47.327Z,20.18
2023-05-18T12:45:47.343Z,19.98
2023-05-18T12:46:47.349Z,20.05
2023-05-18T12:47:47.484Z,19.98
2023-05-18T12:48:47.420Z,20.10
2023-05-18T12:49:47.369Z,19.89
2023-05-18T12:50:47.452Z,19.65
2023-05-18T12:51:47.493Z,19.70
2023-05-18T12:52:47.464Z,19.96
2023-05-18T12:53:47.483Z,20.04